Mikado, MI (48745)

6:16 AM EDT on May 28, 2015 (GMT -0400)
RAWS | | Change Station
CLOSE
Current Station
Personal Weather Station
Location: Barton City, MI
Elevation: 833 ft
Nearby Weather Stations

Elev 833 ft 44.66 °N, 83.59 °W | Updated 30 minutes ago

Partly Cloudy
Partly Cloudy
48 °F
Feels Like 48 °F
N
0
Wind Variable Wind from North
Gusts 2.0 mph

Today
High -- | Low -- °F
--% Chance of Precip.
Yesterday
High -- | Low -- °F
Precip. -- in
5:54 AM 9:08 PM
Waxing Gibbous, 75% visible
Pressure 30.16 in
Visibility 10.0 miles
Clouds Clear
Windchill 48 °F
Dew Point 48 °F
Humidity 99%
Rainfall in
Snow Depth Not available.
UV 0 out of 12
Pollen 6.60 out of 12
Air Quality Not available.
Flu Activity Sporadic
METAR KOSC 280953Z AUTO 22003KT 10SM CLR 11/10 A3016 RMK AO2 T01120107

More Conditions Fewer Conditions

Pressure 30.16 in
Visibility 10.0 miles
Clouds Clear
Windchill 48 °F
Dew Point 48 °F
Humidity 99%
Rainfall in
Snow Depth Not available.
UV 0 out of 12
Pollen 6.60 out of 12
Air Quality Not available.
Flu Activity Sporadic
METAR KOSC 280953Z AUTO 22003KT 10SM CLR 11/10 A3016 RMK AO2 T01120107

More Conditions Fewer Conditions

Nowcast | as of 6:00 am EDT on May 28, 2015

At 7 am...mostly clear. Patchy fog. Temperature 55. Light winds. At 9 am...mostly clear. Temperature 58. East winds 5 mph. At 11 am...mostly clear. Temperature 63. Light winds. At 1 PM...mostly clear. Temperature 64. East winds 7 mph.

×

10-Day Weather Forecast

Almanac

Astronomy

May. 28, 2015 Rise Set
Actual Time
Civil Twilight
Nautical Twilight
Astronomical Twilight
Moon
Length of Visible Light
Length of Day
Tomorrow will be .
, % of the Moon is Illuminated

Today's Extremes

State Highs State Lows

Community

WunderPhotos

Upload Photos

1,824,935 photos uploaded!

WunderBlogs® & News

Nearby

Air Quality

  Air Quality AQ Index Pollutant
Not available.

Snow Depth

Station Depth Elevation

Earthquake Activity

City Distance Mag. Time & Date
Minimum magnitude displayed is 2.5.

Coastal Water Temperatures

Place Temperature

Stations

Nearby Weather Stations

Station Location Temp. Windchill Dew Point Humidity Wind Precip. Elev Updated Type